Time;durP1;ratioP1;P1;durP2;ratioP2;P2;SDS_P1;SDS_P2;PMS_P1;PMS_P2;Temp;Humidity;BMP_temperature;BMP_pressure;BME280_temperature;BME280_humidity;BME280_pressure;Samples;Min_cycle;Max_cycle;Signal;HPM_P1;HPM_P2
2021/06/04 00:01:28;;;;;;;1.37;0.87;;;;;;;-148.58;100.00;55229.56;4996690;28;20030;-60
2021/06/04 00:03:54;;;;;;;1.10;0.80;;;;;;;-148.58;100.00;55229.56;4996644;28;20647;-60
2021/06/04 00:06:20;;;;;;;0.63;0.57;;;;;;;-148.58;100.00;55229.56;4996725;28;20373;-60
2021/06/04 00:08:49;;;;;;;1.00;0.80;;;;;;;-148.58;100.00;55229.56;4996959;28;20034;-59
2021/06/04 00:11:20;;;;;;;1.05;0.50;;;;;;;-148.58;100.00;55229.56;4996592;28;20100;-60
2021/06/04 00:13:49;;;;;;;1.23;0.65;;;;;;;-148.58;100.00;55229.56;4996458;28;20026;-60
2021/06/04 00:16:30;;;;;;;0.80;0.80;;;;;;;-148.58;100.00;55229.56;4996380;28;20027;-60
2021/06/04 00:18:58;;;;;;;0.93;0.70;;;;;;;-148.58;100.00;55229.56;4996511;28;20066;-60
2021/06/04 00:21:29;;;;;;;0.60;0.60;;;;;;;-148.58;100.00;55229.56;4996274;28;20050;-59
2021/06/04 00:23:58;;;;;;;0.95;0.70;;;;;;;-148.58;100.00;55229.56;4996354;28;20278;-59
2021/06/04 00:26:24;;;;;;;1.60;0.70;;;;;;;-148.58;100.00;55229.56;4996208;28;20029;-60
2021/06/04 00:28:50;;;;;;;1.98;0.47;;;;;;;-148.58;100.00;55229.56;4996069;28;20436;-60
2021/06/04 00:31:15;;;;;;;0.77;0.60;;;;;;;-148.58;100.00;55229.56;5011636;28;20029;-59
2021/06/04 00:33:42;;;;;;;2.25;0.65;;;;;;;-148.58;100.00;55229.56;4996067;28;20073;-60
2021/06/04 00:36:08;;;;;;;0.60;0.60;;;;;;;-148.58;100.00;55229.56;4996060;28;20022;-59
2021/06/04 00:38:34;;;;;;;2.10;0.90;;;;;;;-148.58;100.00;55229.56;4995869;28;20029;-60
2021/06/04 00:41:05;;;;;;;1.75;1.02;;;;;;;-148.58;100.00;55229.56;4996414;28;20014;-59
2021/06/04 00:43:31;;;;;;;2.72;0.70;;;;;;;-148.58;100.00;55229.56;4995846;28;20125;-59
2021/06/04 00:45:58;;;;;;;1.30;0.70;;;;;;;-148.58;100.00;55229.56;5011030;28;20117;-59
2021/06/04 00:48:25;;;;;;;1.90;0.93;;;;;;;-148.58;100.00;55229.56;4996137;28;20033;-60
2021/06/04 00:51:01;;;;;;;1.40;0.60;;;;;;;-148.58;100.00;55229.56;4995784;28;20091;-60
2021/06/04 00:53:26;;;;;;;1.10;0.63;;;;;;;-148.58;100.00;55229.56;4995770;28;20034;-60
2021/06/04 00:55:54;;;;;;;1.55;0.82;;;;;;;-148.58;100.00;55229.56;5010766;28;20022;-59
2021/06/04 00:58:23;;;;;;;0.73;0.63;;;;;;;-148.58;100.00;55229.56;4995843;28;20022;-59
2021/06/04 01:00:51;;;;;;;1.15;0.70;;;;;;;-148.58;100.00;55229.56;4995476;28;20026;-60
2021/06/04 01:03:20;;;;;;;1.20;0.85;;;;;;;-148.58;100.00;55229.56;4994943;28;20030;-60
2021/06/04 01:05:45;;;;;;;3.20;1.10;;;;;;;-148.58;100.00;55229.56;4995415;28;20022;-59
2021/06/04 01:08:25;;;;;;;1.88;1.00;;;;;;;-148.58;100.00;55229.56;4995577;28;20488;-59
2021/06/04 01:11:14;;;;;;;1.95;0.95;;;;;;;-148.58;100.00;55229.56;4995089;28;20026;-60
2021/06/04 01:13:42;;;;;;;2.28;1.13;;;;;;;-148.58;100.00;55229.56;4995257;28;20492;-59
2021/06/04 01:16:15;;;;;;;3.53;1.00;;;;;;;-148.58;100.00;55229.56;4995412;28;20026;-60
2021/06/04 01:19:00;;;;;;;2.17;1.00;;;;;;;-148.58;100.00;55229.56;5010191;28;20032;-60
2021/06/04 01:22:03;;;;;;;1.35;0.80;;;;;;;-148.58;100.00;55229.56;4994949;28;20141;-60
2021/06/04 01:24:52;;;;;;;1.88;1.20;;;;;;;-148.58;100.00;55229.56;4934692;29;20031;-60
2021/06/04 01:27:25;;;;;;;0.90;0.75;;;;;;;-148.58;100.00;55229.56;4934709;29;20043;-60
2021/06/04 01:30:29;;;;;;;1.60;0.85;;;;;;;-148.58;100.00;55229.56;4934684;29;20031;-60
2021/06/04 01:33:06;;;;;;;3.72;1.50;;;;;;;-148.58;100.00;55229.56;4915643;29;20047;-60
2021/06/04 01:35:39;;;;;;;1.20;0.80;;;;;;;-148.58;100.00;55229.56;4915699;29;20036;-59
2021/06/04 01:38:05;;;;;;;2.08;1.10;;;;;;;-148.58;100.00;55229.56;4915668;29;20032;-59
2021/06/04 01:40:37;;;;;;;1.65;1.10;;;;;;;-148.58;100.00;55229.56;4915616;29;20103;-60
2021/06/04 01:43:08;;;;;;;1.42;0.93;;;;;;;-148.58;100.00;55229.56;4915636;29;20048;-60
2021/06/04 01:45:38;;;;;;;2.55;0.73;;;;;;;-148.58;100.00;55229.56;4915523;29;20097;-60
2021/06/04 01:48:10;;;;;;;1.10;0.90;;;;;;;-148.58;100.00;55229.56;4915512;29;20464;-59
2021/06/04 01:50:44;;;;;;;1.73;0.93;;;;;;;-148.58;100.00;55229.56;4915239;29;20460;-60
2021/06/04 01:53:26;;;;;;;2.17;1.08;;;;;;;-148.58;100.00;55229.56;4915386;29;20040;-59
2021/06/04 01:55:58;;;;;;;0.90;0.60;;;;;;;-148.58;100.00;55229.56;4915211;29;20050;-59
2021/06/04 01:58:30;;;;;;;1.00;0.80;;;;;;;-148.58;100.00;55229.56;4934020;29;20031;-60
2021/06/04 02:01:05;;;;;;;2.47;0.68;;;;;;;-148.58;100.00;55229.56;4953313;29;20027;-59
2021/06/04 02:03:30;;;;;;;0.90;0.85;;;;;;;-148.58;100.00;55229.56;4953410;29;20043;-61
2021/06/04 02:05:57;;;;;;;0.98;0.88;;;;;;;-148.58;100.00;55229.56;4953314;29;20042;-59
2021/06/04 02:08:29;;;;;;;0.90;0.65;;;;;;;-148.58;100.00;55229.56;4954679;28;20110;-60
2021/06/04 02:10:55;;;;;;;1.20;0.98;;;;;;;-148.58;100.00;55229.56;4994310;28;20026;-59
2021/06/04 02:13:21;;;;;;;1.10;0.75;;;;;;;-148.58;100.00;55229.56;4993598;28;20117;-60
2021/06/04 02:15:56;;;;;;;6.97;0.95;;;;;;;-148.58;100.00;55229.56;4993842;28;20034;-60
2021/06/04 02:18:39;;;;;;;;;;;;;;;-148.58;100.00;55229.56;4994539;28;20070;-60
2021/06/04 02:21:19;;;;;;;1.55;0.80;;;;;;;-148.58;100.00;55229.56;4993981;28;19909;-60
2021/06/04 02:24:01;;;;;;;1.00;0.90;;;;;;;-148.58;100.00;55229.56;4993969;28;20109;-60
2021/06/04 02:26:33;;;;;;;1.17;0.90;;;;;;;-148.58;100.00;55229.56;4993894;28;20018;-60
2021/06/04 02:29:23;;;;;;;1.02;0.90;;;;;;;-148.58;100.00;55229.56;4993999;28;20033;-59
2021/06/04 02:31:55;;;;;;;1.52;0.90;;;;;;;-148.58;100.00;55229.56;4993761;28;20366;-60
2021/06/04 02:34:25;;;;;;;1.38;0.80;;;;;;;-148.58;100.00;55229.56;4994257;28;20117;-60
2021/06/04 02:37:03;;;;;;;0.82;0.68;;;;;;;-148.58;100.00;55229.56;4993705;28;20030;-59
2021/06/04 02:39:45;;;;;;;1.25;0.70;;;;;;;-148.58;100.00;55229.56;4993634;28;20363;-60
2021/06/04 02:42:18;;;;;;;1.92;0.75;;;;;;;-148.58;100.00;55229.56;4993919;28;20026;-59
2021/06/04 02:44:49;;;;;;;1.45;0.80;;;;;;;-148.58;100.00;55229.56;4993446;28;20557;-59
2021/06/04 02:47:21;;;;;;;1.10;0.60;;;;;;;-148.58;100.00;55229.56;4993690;28;20027;-59
2021/06/04 02:49:47;;;;;;;1.50;0.88;;;;;;;-148.58;100.00;55229.56;4993570;28;20077;-59
2021/06/04 02:52:36;;;;;;;1.20;0.82;;;;;;;-148.58;100.00;55229.56;4993486;28;20030;-59
2021/06/04 02:55:12;;;;;;;0.60;0.50;;;;;;;-148.58;100.00;55229.56;4993624;28;20030;-60
2021/06/04 02:57:38;;;;;;;0.55;0.55;;;;;;;-148.58;100.00;55229.56;4993351;28;20026;-59
2021/06/04 03:00:11;;;;;;;1.13;0.70;;;;;;;-148.58;100.00;55229.56;4993615;28;20030;-60
2021/06/04 03:02:36;;;;;;;1.33;0.77;;;;;;;-148.58;100.00;55229.56;4993219;28;20097;-59
2021/06/04 03:05:24;;;;;;;1.10;0.65;;;;;;;-148.58;100.00;55229.56;4993510;28;20486;-61
2021/06/04 03:07:49;;;;;;;0.75;0.50;;;;;;;-148.58;100.00;55229.56;4992998;28;20474;-60
2021/06/04 03:10:33;;;;;;;0.73;0.73;;;;;;;-148.58;100.00;55229.56;4993492;28;20180;-59
2021/06/04 03:12:58;;;;;;;0.73;0.70;;;;;;;-148.58;100.00;55229.56;4993512;28;20032;-60
2021/06/04 03:15:28;;;;;;;1.33;0.80;;;;;;;-148.58;100.00;55229.56;4993264;28;20433;-60
2021/06/04 03:17:54;;;;;;;0.73;0.70;;;;;;;-148.58;100.00;55229.56;4993211;28;20076;-59
2021/06/04 03:20:34;;;;;;;0.65;0.65;;;;;;;-148.58;100.00;55229.56;5008623;28;20374;-60
2021/06/04 03:23:00;;;;;;;2.08;0.65;;;;;;;-148.58;100.00;55229.56;4992924;28;20089;-60
2021/06/04 03:25:30;;;;;;;3.88;0.77;;;;;;;-148.58;100.00;55229.56;4992891;28;20275;-60
2021/06/04 03:27:56;;;;;;;0.68;0.65;;;;;;;-148.58;100.00;55229.56;4992997;28;20093;-60
2021/06/04 03:30:28;;;;;;;0.55;0.40;;;;;;;-148.58;100.00;55229.56;4993251;28;20466;-60
2021/06/04 03:32:54;;;;;;;2.08;0.70;;;;;;;-148.58;100.00;55229.56;4992904;28;20385;-60
2021/06/04 03:35:21;;;;;;;1.25;0.75;;;;;;;-148.58;100.00;55229.56;4993129;28;20041;-60
2021/06/04 03:37:47;;;;;;;1.73;0.75;;;;;;;-148.58;100.00;55229.56;4993244;28;20030;-60
2021/06/04 03:40:16;;;;;;;1.00;0.77;;;;;;;-148.58;100.00;55229.56;4993052;28;20145;-59
2021/06/04 03:42:42;;;;;;;1.55;0.82;;;;;;;-148.58;100.00;55229.56;4993138;28;20059;-60
2021/06/04 03:45:11;;;;;;;0.77;0.50;;;;;;;-148.58;100.00;55229.56;4992929;28;20050;-60
2021/06/04 03:47:37;;;;;;;1.02;0.60;;;;;;;-148.58;100.00;55229.56;4992907;28;20109;-60
2021/06/04 03:50:05;;;;;;;1.65;0.60;;;;;;;-148.58;100.00;55229.56;4993008;28;20177;-59
2021/06/04 03:52:30;;;;;;;1.38;0.63;;;;;;;-148.58;100.00;55229.56;4993088;28;20377;-60
2021/06/04 03:54:58;;;;;;;1.75;0.70;;;;;;;-148.58;100.00;55229.56;4992818;28;20041;-59
2021/06/04 03:57:28;;;;;;;1.08;0.60;;;;;;;-148.58;100.00;55229.56;4992932;28;20022;-60
2021/06/04 03:59:54;;;;;;;0.63;0.45;;;;;;;-148.58;100.00;55229.56;4992813;28;20034;-59
2021/06/04 04:02:24;;;;;;;1.35;0.70;;;;;;;-148.58;100.00;55229.56;4992864;28;20026;-60
2021/06/04 04:04:55;;;;;;;1.38;0.55;;;;;;;-148.58;100.00;55229.56;4993022;28;20050;-59
2021/06/04 04:07:20;;;;;;;0.50;0.40;;;;;;;-148.58;100.00;55229.56;4992749;28;20519;-60
2021/06/04 04:09:46;;;;;;;1.75;0.70;;;;;;;-148.58;100.00;55229.56;4992728;28;20038;-60
2021/06/04 04:12:11;;;;;;;1.38;0.52;;;;;;;-148.58;100.00;55229.56;4992810;28;20033;-60
2021/06/04 04:14:37;;;;;;;1.38;0.60;;;;;;;-148.58;100.00;55229.56;4992549;28;20033;-60
2021/06/04 04:17:03;;;;;;;2.33;0.70;;;;;;;-148.58;100.00;55229.56;4992579;28;20093;-60
2021/06/04 04:19:29;;;;;;;1.65;0.40;;;;;;;-148.58;100.00;55229.56;4992655;28;20101;-60
2021/06/04 04:21:56;;;;;;;2.25;0.55;;;;;;;-148.58;100.00;55229.56;4992646;28;20470;-60
2021/06/04 04:24:29;;;;;;;1.05;0.38;;;;;;;-148.58;100.00;55229.56;4992709;28;20425;-60
2021/06/04 04:26:55;;;;;;;2.65;0.55;;;;;;;-148.58;100.00;55229.56;4992808;28;20069;-60
2021/06/04 04:29:21;;;;;;;1.25;0.40;;;;;;;-148.58;100.00;55229.56;4992546;28;20508;-60
2021/06/04 04:31:51;;;;;;;0.70;0.70;;;;;;;-148.58;100.00;55229.56;4992469;28;20077;-59
2021/06/04 04:34:17;;;;;;;1.55;0.68;;;;;;;-148.58;100.00;55229.56;4992680;28;20040;-60
2021/06/04 04:36:47;;;;;;;0.80;0.40;;;;;;;-148.58;100.00;55229.56;4992490;28;20053;-60
2021/06/04 04:39:17;;;;;;;1.52;0.55;;;;;;;-148.58;100.00;55229.56;4996065;28;20054;-59
2021/06/04 04:41:44;;;;;;;0.80;0.40;;;;;;;-148.58;100.00;55229.56;4995951;28;20038;-60
2021/06/04 04:44:10;;;;;;;1.55;0.63;;;;;;;-148.58;100.00;55229.56;4996069;28;20030;-59
2021/06/04 04:46:36;;;;;;;2.30;0.47;;;;;;;-148.58;100.00;55229.56;4995732;28;20034;-60
2021/06/04 04:49:02;;;;;;;1.17;0.47;;;;;;;-148.58;100.00;55229.56;4995892;28;20029;-60
2021/06/04 04:51:30;;;;;;;0.20;0.17;;;;;;;-148.58;100.00;55229.56;4995842;28;20038;-60
2021/06/04 04:53:55;;;;;;;0.50;0.32;;;;;;;-148.58;100.00;55229.56;4995768;28;20022;-59
2021/06/04 04:56:23;;;;;;;1.27;0.40;;;;;;;-148.58;100.00;55229.56;4995886;28;20037;-60
2021/06/04 04:58:48;;;;;;;0.35;0.10;;;;;;;-148.58;100.00;55229.56;4995911;28;20019;-59
2021/06/04 05:01:14;;;;;;;0.20;0.20;;;;;;;-148.58;100.00;55229.56;4995775;28;20403;-60
2021/06/04 05:03:40;;;;;;;0.32;0.15;;;;;;;-148.58;100.00;55229.56;4995494;28;20076;-59
2021/06/04 05:06:06;;;;;;;2.20;0.52;;;;;;;-148.58;100.00;55229.56;4995493;28;20477;-60
2021/06/04 05:08:32;;;;;;;0.68;0.20;;;;;;;-148.58;100.00;55229.56;4995625;28;20033;-59
2021/06/04 05:10:57;;;;;;;0.40;0.40;;;;;;;-148.58;100.00;55229.56;4995513;28;20031;-60
2021/06/04 05:13:23;;;;;;;0.30;0.20;;;;;;;-148.58;100.00;55229.56;4996144;28;20036;-59
2021/06/04 05:15:49;;;;;;;0.73;0.20;;;;;;;-148.58;100.00;55229.56;4995285;28;20030;-60
2021/06/04 05:18:14;;;;;;;2.03;0.63;;;;;;;-148.58;100.00;55229.56;4995536;28;20030;-59
2021/06/04 05:20:45;;;;;;;0.68;0.20;;;;;;;-148.58;100.00;55229.56;4995123;28;20023;-59
2021/06/04 05:23:12;;;;;;;0.50;0.20;;;;;;;-148.58;100.00;55229.56;5010131;28;20038;-59
2021/06/04 05:25:41;;;;;;;1.25;0.30;;;;;;;-148.58;100.00;55229.56;4995090;28;20044;-60
2021/06/04 05:28:09;;;;;;;1.13;0.30;;;;;;;-148.58;100.00;55229.56;4995214;28;20027;-60
2021/06/04 05:30:43;;;;;;;0.60;0.17;;;;;;;-148.58;100.00;55229.56;4995065;28;20478;-60
2021/06/04 05:33:14;;;;;;;0.30;0.13;;;;;;;-148.58;100.00;55229.56;4995149;28;20116;-59
2021/06/04 05:35:41;;;;;;;2.45;0.55;;;;;;;-148.58;100.00;55229.56;4994959;28;20033;-60
2021/06/04 05:38:06;;;;;;;0.40;0.20;;;;;;;-148.58;100.00;55229.56;4993753;28;20033;-59
2021/06/04 05:40:41;;;;;;;0.40;0.10;;;;;;;-148.58;100.00;55229.56;5009978;28;20033;-60
2021/06/04 05:43:10;;;;;;;0.40;0.20;;;;;;;-148.58;100.00;55229.56;4994942;28;20050;-59
2021/06/04 05:45:38;;;;;;;0.32;0.10;;;;;;;-148.58;100.00;55229.56;4994772;28;20032;-60
2021/06/04 05:48:04;;;;;;;0.28;0.20;;;;;;;-148.58;100.00;55229.56;4994647;28;20026;-59
2021/06/04 05:50:35;;;;;;;0.47;0.10;;;;;;;-148.58;100.00;55229.56;4994664;28;20417;-59
2021/06/04 05:53:00;;;;;;;0.70;0.20;;;;;;;-148.58;100.00;55229.56;4995088;28;20470;-59
2021/06/04 05:55:28;;;;;;;0.40;0.20;;;;;;;-148.58;100.00;55229.56;4994666;28;20026;-60
2021/06/04 05:57:54;;;;;;;2.80;0.65;;;;;;;-148.58;100.00;55229.56;4994579;28;20245;-60
2021/06/04 06:00:43;;;;;;;1.02;0.20;;;;;;;-148.58;100.00;55229.56;5009718;28;20058;-60
2021/06/04 06:03:13;;;;;;;1.67;0.50;;;;;;;-148.58;100.00;55229.56;4994443;28;20041;-59
2021/06/04 06:05:38;;;;;;;0.73;0.32;;;;;;;-148.58;100.00;55229.56;5009455;28;20058;-60
2021/06/04 06:08:05;;;;;;;1.02;0.20;;;;;;;-148.58;100.00;55229.56;4994466;28;20065;-59
2021/06/04 06:10:30;;;;;;;0.98;0.40;;;;;;;-148.58;100.00;55229.56;4994210;28;20034;-60
2021/06/04 06:12:55;;;;;;;1.27;0.30;;;;;;;-148.58;100.00;55229.56;4994349;28;20030;-59
2021/06/04 06:15:23;;;;;;;1.35;0.47;;;;;;;-148.58;100.00;55229.56;4994287;28;20463;-60
2021/06/04 06:17:49;;;;;;;2.08;0.50;;;;;;;-148.58;100.00;55229.56;4994115;28;20469;-59
2021/06/04 06:20:16;;;;;;;1.20;0.28;;;;;;;-148.58;100.00;55229.56;4994263;28;20037;-60
2021/06/04 06:22:43;;;;;;;1.60;0.20;;;;;;;-148.58;100.00;55229.56;4989459;28;20061;-59
2021/06/04 06:25:15;;;;;;;1.05;0.43;;;;;;;-148.58;100.00;55229.56;4993661;28;20042;-60
2021/06/04 06:27:42;;;;;;;1.50;0.20;;;;;;;-148.58;100.00;55229.56;4992910;28;20037;-59
2021/06/04 06:30:13;;;;;;;1.02;0.20;;;;;;;-148.58;100.00;55229.56;4992659;28;20480;-60
2021/06/04 06:32:38;;;;;;;1.27;0.57;;;;;;;-148.58;100.00;55229.56;4992316;28;20030;-60
2021/06/04 06:35:05;;;;;;;0.10;0.10;;;;;;;-148.58;100.00;55229.56;4993258;28;20041;-60
2021/06/04 06:37:30;;;;;;;2.30;0.30;;;;;;;-148.58;100.00;55229.56;4993294;28;20062;-61
2021/06/04 06:39:55;;;;;;;1.55;0.63;;;;;;;-148.58;100.00;55229.56;4993379;28;20524;-59
2021/06/04 06:42:21;;;;;;;2.15;0.30;;;;;;;-148.58;100.00;55229.56;5000139;28;20035;-59
2021/06/04 06:44:46;;;;;;;1.58;0.40;;;;;;;-148.58;100.00;55229.56;4993353;28;20489;-60
2021/06/04 06:47:11;;;;;;;0.77;0.32;;;;;;;-148.58;100.00;55229.56;4993003;28;20033;-59
2021/06/04 06:49:37;;;;;;;1.33;0.30;;;;;;;-148.58;100.00;55229.56;4992803;28;20029;-61
2021/06/04 06:52:02;;;;;;;0.60;0.40;;;;;;;-148.58;100.00;55229.56;4993320;28;20057;-60
2021/06/04 06:54:31;;;;;;;1.58;0.75;;;;;;;-148.58;100.00;55229.56;4993393;28;20049;-60
2021/06/04 06:56:58;;;;;;;0.98;0.47;;;;;;;-148.58;100.00;55229.56;4993384;28;20088;-59
2021/06/04 06:59:26;;;;;;;0.70;0.35;;;;;;;-148.58;100.00;55229.56;4991853;28;20109;-60
2021/06/04 07:01:51;;;;;;;1.27;0.47;;;;;;;-148.58;100.00;55229.56;4993346;28;20034;-59
2021/06/04 07:04:17;;;;;;;1.05;0.30;;;;;;;-148.58;100.00;55229.56;4993774;28;20102;-60
2021/06/04 07:06:43;;;;;;;1.25;0.35;;;;;;;-148.58;100.00;55229.56;4993173;28;20034;-60
2021/06/04 07:09:12;;;;;;;1.90;0.40;;;;;;;-148.58;100.00;55229.56;4993252;28;20057;-61
2021/06/04 07:11:43;;;;;;;1.90;0.50;;;;;;;-148.58;100.00;55229.56;4992666;28;20105;-60
2021/06/04 07:14:10;;;;;;;1.83;0.38;;;;;;;-148.58;100.00;55229.56;4992403;28;20140;-60
2021/06/04 07:16:37;;;;;;;0.68;0.20;;;;;;;-148.58;100.00;55229.56;5008312;28;20029;-59
2021/06/04 07:19:04;;;;;;;1.25;0.30;;;;;;;-148.58;100.00;55229.56;4998318;28;20373;-59
2021/06/04 07:21:30;;;;;;;2.17;0.40;;;;;;;-148.58;100.00;55229.56;4992881;28;20575;-59
2021/06/04 07:23:57;;;;;;;0.95;0.30;;;;;;;-148.58;100.00;55229.56;4988427;28;20022;-61
2021/06/04 07:26:23;;;;;;;2.00;0.75;;;;;;;-148.58;100.00;55229.56;4992456;28;20057;-60
2021/06/04 07:28:50;;;;;;;1.20;0.20;;;;;;;-148.58;100.00;55229.56;5007306;28;20033;-61
2021/06/04 07:31:18;;;;;;;0.70;0.20;;;;;;;-148.58;100.00;55229.56;5012411;28;20480;-59
2021/06/04 07:33:46;;;;;;;0.88;0.40;;;;;;;-148.58;100.00;55229.56;5012209;28;20033;-60
2021/06/04 07:36:25;;;;;;;1.90;0.65;;;;;;;-148.58;100.00;55229.56;5010089;28;20044;-60
2021/06/04 07:38:51;;;;;;;1.10;0.40;;;;;;;-148.58;100.00;55229.56;4990761;28;20121;-59
2021/06/04 07:41:17;;;;;;;0.88;0.30;;;;;;;-148.58;100.00;55229.56;4991413;28;20489;-59
2021/06/04 07:43:45;;;;;;;1.73;0.50;;;;;;;-148.58;100.00;55229.56;4992742;28;20029;-60
2021/06/04 07:46:13;;;;;;;1.05;0.25;;;;;;;-148.58;100.00;55229.56;4992390;28;20033;-60
2021/06/04 07:48:38;;;;;;;1.35;0.40;;;;;;;-148.58;100.00;55229.56;4991903;28;20034;-59
2021/06/04 07:51:07;;;;;;;2.63;0.40;;;;;;;-148.58;100.00;55229.56;4991360;28;20129;-60
2021/06/04 07:53:34;;;;;;;2.17;0.40;;;;;;;-148.58;100.00;55229.56;4992923;28;20072;-60
2021/06/04 07:56:01;;;;;;;1.60;0.40;;;;;;;-148.58;100.00;55229.56;4992827;28;20030;-60
2021/06/04 07:58:26;;;;;;;2.10;0.47;;;;;;;-148.58;100.00;55229.56;4993321;28;20025;-59
2021/06/04 08:00:52;;;;;;;2.00;0.57;;;;;;;-148.58;100.00;55229.56;4992115;28;20035;-60
2021/06/04 08:03:21;;;;;;;3.45;0.85;;;;;;;-148.58;100.00;55229.56;4993851;28;20030;-59
2021/06/04 08:05:46;;;;;;;1.42;0.60;;;;;;;-148.58;100.00;55229.56;4993525;28;20069;-60
2021/06/04 08:08:12;;;;;;;2.15;0.60;;;;;;;-148.58;100.00;55229.56;4993696;28;20026;-60
2021/06/04 08:10:40;;;;;;;1.65;0.35;;;;;;;-148.58;100.00;55229.56;4993515;28;20027;-59
2021/06/04 08:13:06;;;;;;;2.03;0.55;;;;;;;-148.58;100.00;55229.56;4994188;28;20057;-61
2021/06/04 08:15:40;;;;;;;0.68;0.20;;;;;;;-148.58;100.00;55229.56;4996254;28;20073;-59
2021/06/04 08:18:06;;;;;;;0.38;0.10;;;;;;;-148.58;100.00;55229.56;4995272;28;20023;-62
2021/06/04 08:20:34;;;;;;;0.88;0.30;;;;;;;-148.58;100.00;55229.56;4995655;28;20340;-60
2021/06/04 08:23:04;;;;;;;4.28;0.40;;;;;;;-148.58;100.00;55229.56;5000461;28;20050;-59
2021/06/04 08:25:36;;;;;;;3.13;0.30;;;;;;;-148.58;100.00;55229.56;4996103;28;20069;-58
2021/06/04 08:28:02;;;;;;;2.05;0.35;;;;;;;-148.58;100.00;55229.56;4996323;28;20034;-59
2021/06/04 08:30:27;;;;;;;1.05;0.43;;;;;;;-148.58;100.00;55229.56;4995647;28;20077;-59
2021/06/04 08:32:53;;;;;;;0.77;0.20;;;;;;;-148.58;100.00;55229.56;4996116;28;20026;-59
2021/06/04 08:35:20;;;;;;;1.35;0.45;;;;;;;-148.58;100.00;55229.56;4994950;28;20462;-59
2021/06/04 08:37:45;;;;;;;2.60;0.35;;;;;;;-148.58;100.00;55229.56;4995417;28;20022;-59
2021/06/04 08:40:17;;;;;;;1.88;0.50;;;;;;;-148.58;100.00;55229.56;4995230;28;20527;-59
2021/06/04 08:42:54;;;;;;;1.88;0.40;;;;;;;-148.58;100.00;55229.56;4994387;28;20565;-61
2021/06/04 08:45:25;;;;;;;0.40;0.15;;;;;;;-148.58;100.00;55229.56;4994660;28;20025;-62
2021/06/04 08:47:59;;;;;;;1.27;0.25;;;;;;;-148.58;100.00;55229.56;4994711;28;20377;-61
2021/06/04 08:50:30;;;;;;;1.70;0.40;;;;;;;-148.58;100.00;55229.56;5009299;28;20453;-61
2021/06/04 08:53:16;;;;;;;1.65;0.30;;;;;;;-148.58;100.00;55229.56;5002620;28;20042;-60
2021/06/04 08:55:54;;;;;;;0.68;0.30;;;;;;;-148.58;100.00;55229.56;5015271;28;20029;-60
2021/06/04 08:58:51;;;;;;;0.90;0.40;;;;;;;-148.58;100.00;55229.56;5001596;28;20417;-61
2021/06/04 09:01:26;;;;;;;1.42;0.30;;;;;;;-148.58;100.00;55229.56;5002064;28;20391;-61
2021/06/04 09:04:00;;;;;;;0.93;0.10;;;;;;;-148.58;100.00;55229.56;4976421;28;20074;-61
2021/06/04 09:06:40;;;;;;;0.93;0.30;;;;;;;-148.58;100.00;55229.56;4984062;28;20516;-61
2021/06/04 09:09:24;;;;;;;0.30;0.20;;;;;;;-148.58;100.00;55229.56;4995522;28;20030;-61
2021/06/04 09:11:59;;;;;;;1.05;0.30;;;;;;;-148.58;100.00;55229.56;5014031;28;20037;-61
2021/06/04 09:14:25;;;;;;;3.17;0.45;;;;;;;-148.58;100.00;55229.56;5007237;28;20104;-61
2021/06/04 09:17:17;;;;;;;2.25;0.40;;;;;;;-148.58;100.00;55229.56;4995283;28;20373;-61
2021/06/04 09:19:51;;;;;;;1.75;0.57;;;;;;;-148.58;100.00;55229.56;5002284;28;20022;-61
2021/06/04 09:22:18;;;;;;;2.60;0.55;;;;;;;-148.58;100.00;55229.56;5009571;28;20054;-60
2021/06/04 09:24:47;;;;;;;2.20;0.30;;;;;;;-148.58;100.00;55229.56;5007188;28;20062;-61
2021/06/04 09:27:32;;;;;;;0.88;0.20;;;;;;;-148.58;100.00;55229.56;4989750;28;20525;-59
2021/06/04 09:30:14;;;;;;;0.75;0.20;;;;;;;-148.58;100.00;55229.56;4993773;28;20241;-61
2021/06/04 09:32:42;;;;;;;1.27;0.40;;;;;;;-148.58;100.00;55229.56;4993504;28;20192;-60
2021/06/04 09:35:09;;;;;;;1.77;0.40;;;;;;;-148.58;100.00;55229.56;4993598;28;20026;-60
2021/06/04 09:37:37;;;;;;;0.80;0.40;;;;;;;-148.58;100.00;55229.56;4993420;28;20034;-60
2021/06/04 09:40:12;;;;;;;2.83;0.47;;;;;;;-148.58;100.00;55229.56;4994409;28;20033;-60
2021/06/04 09:42:51;;;;;;;0.70;0.30;;;;;;;-148.58;100.00;55229.56;4995283;28;20121;-60
2021/06/04 09:45:37;;;;;;;2.38;0.25;;;;;;;-148.58;100.00;55229.56;5014538;28;20040;-60
2021/06/04 09:48:07;;;;;;;1.00;0.30;;;;;;;-148.58;100.00;55229.56;5014364;28;20093;-60
2021/06/04 09:50:38;;;;;;;0.50;0.40;;;;;;;-148.58;100.00;55229.56;5014280;28;20437;-60
2021/06/04 09:53:18;;;;;;;1.05;0.35;;;;;;;-148.58;100.00;55229.56;5002018;28;20022;-60
2021/06/04 09:55:46;;;;;;;0.55;0.17;;;;;;;-148.58;100.00;55229.56;5009857;28;20026;-60
2021/06/04 09:58:12;;;;;;;1.67;0.60;;;;;;;-148.58;100.00;55229.56;4991409;28;20105;-60
2021/06/04 10:00:57;;;;;;;2.00;0.40;;;;;;;-148.58;100.00;55229.56;4991875;28;20101;-60
2021/06/04 10:03:37;;;;;;;1.42;0.45;;;;;;;-148.58;100.00;55229.56;4991049;28;20597;-60
2021/06/04 10:06:06;;;;;;;1.38;0.30;;;;;;;-148.58;100.00;55229.56;4991319;28;20129;-60
2021/06/04 10:08:52;;;;;;;1.05;0.25;;;;;;;-148.58;100.00;55229.56;4990993;28;20018;-61
2021/06/04 10:11:22;;;;;;;0.93;0.55;;;;;;;-148.58;100.00;55229.56;4991008;28;20120;-60
2021/06/04 10:14:08;;;;;;;0.60;0.40;;;;;;;-148.58;100.00;55229.56;4992570;28;20234;-60
2021/06/04 10:19:42;;;;;;;0.50;0.20;;;;;;;-148.58;100.00;55229.56;4994295;28;20022;-60
2021/06/04 10:22:32;;;;;;;1.65;0.30;;;;;;;-148.58;100.00;55229.56;4974190;28;20057;-60
2021/06/04 10:25:00;;;;;;;0.88;0.20;;;;;;;-148.58;100.00;55229.56;4974489;28;20383;-60
2021/06/04 10:27:25;;;;;;;1.23;0.22;;;;;;;-148.58;100.00;55229.56;4974549;28;20082;-60
2021/06/04 10:30:25;;;;;;;1.30;0.28;;;;;;;-148.58;100.00;55229.56;4973574;28;20054;-60
2021/06/04 10:32:53;;;;;;;0.47;0.20;;;;;;;-148.58;100.00;55229.56;4971538;28;20125;-59
2021/06/04 10:35:31;;;;;;;1.30;0.17;;;;;;;-148.58;100.00;55229.56;4973775;28;20065;-60
2021/06/04 10:38:13;;;;;;;1.75;0.30;;;;;;;-148.58;100.00;55229.56;4983190;28;20022;-60
2021/06/04 10:40:51;;;;;;;1.48;0.40;;;;;;;-148.58;100.00;55229.56;4992173;28;20101;-61
2021/06/04 10:43:41;;;;;;;1.02;0.50;;;;;;;-148.58;100.00;55229.56;4992422;28;20049;-60
2021/06/04 10:46:32;;;;;;;2.22;0.40;;;;;;;-148.58;100.00;55229.56;4993014;28;20045;-60
2021/06/04 10:49:25;;;;;;;0.43;0.10;;;;;;;-148.58;100.00;55229.56;4992962;28;20030;-60
2021/06/04 10:52:12;;;;;;;0.28;0.20;;;;;;;-148.58;100.00;55229.56;4992651;28;20030;-60
2021/06/04 10:55:07;;;;;;;0.45;0.15;;;;;;;-148.58;100.00;55229.56;4992913;28;20402;-61
2021/06/04 10:57:55;;;;;;;1.00;0.38;;;;;;;-148.58;100.00;55229.56;5008454;28;20023;-60
2021/06/04 11:00:23;;;;;;;1.67;0.30;;;;;;;-148.58;100.00;55229.56;4993703;28;20030;-60
2021/06/04 11:02:54;;;;;;;1.98;0.45;;;;;;;-148.58;100.00;55229.56;4993278;28;20457;-61
2021/06/04 11:05:31;;;;;;;2.15;0.40;;;;;;;-148.58;100.00;55229.56;4992653;28;20121;-59
2021/06/04 11:08:05;;;;;;;0.60;0.30;;;;;;;-148.58;100.00;55229.56;4990863;28;20042;-61
2021/06/04 11:10:45;;;;;;;0.50;0.10;;;;;;;-148.58;100.00;55229.56;5002653;28;20484;-61
2021/06/04 11:13:13;;;;;;;1.42;0.40;;;;;;;-148.58;100.00;55229.56;4991033;28;20030;-60
2021/06/04 11:15:54;;;;;;;0.65;0.22;;;;;;;-148.58;100.00;55229.56;4990527;28;20080;-60
2021/06/04 11:18:52;;;;;;;0.20;0.17;;;;;;;-148.58;100.00;55229.56;4991992;28;20080;-60
2021/06/04 11:21:24;;;;;;;1.95;0.50;;;;;;;-148.58;100.00;55229.56;5007126;28;20026;-60
2021/06/04 11:23:58;;;;;;;2.67;0.40;;;;;;;-148.58;100.00;55229.56;4991302;28;20536;-60
2021/06/04 11:26:33;;;;;;;0.43;0.17;;;;;;;-148.58;100.00;55229.56;4991789;28;20062;-61
2021/06/04 11:29:06;;;;;;;1.35;0.35;;;;;;;-148.58;100.00;55229.56;4992866;28;20030;-60
2021/06/04 11:31:56;;;;;;;1.25;0.32;;;;;;;-148.58;100.00;55229.56;4991970;28;20081;-60